Time;durP1;ratioP1;P1;durP2;ratioP2;P2;SDS_P1;SDS_P2;PMS_P1;PMS_P2;Temp;Humidity;BMP_temperature;BMP_pressure;BME280_temperature;BME280_humidity;BME280_pressure;Samples;Min_cycle;Max_cycle;Signal;HPM_P1;HPM_P2
2023/04/22 00:01:04;;;;;;;10.90;8.98;;;;;;;;;;5017474;28;20124;-74
2023/04/22 00:03:31;;;;;;;9.27;8.27;;;;;;;;;;5035278;28;20042;-74
2023/04/22 00:05:57;;;;;;;11.80;8.75;;;;;;;;;;5035651;28;20057;-74
2023/04/22 00:08:24;;;;;;;9.82;7.80;;;;;;;;;;5035119;28;20041;-74
2023/04/22 00:10:50;;;;;;;10.43;8.30;;;;;;;;;;5034731;28;20045;-74
2023/04/22 00:13:16;;;;;;;10.43;8.18;;;;;;;;;;5035026;28;20117;-74
2023/04/22 00:15:42;;;;;;;10.52;7.88;;;;;;;;;;5034682;28;20049;-73
2023/04/22 00:18:12;;;;;;;9.20;7.72;;;;;;;;;;5033083;28;20132;-74
2023/04/22 00:20:39;;;;;;;10.20;7.82;;;;;;;;;;5016854;28;20189;-75
2023/04/22 00:23:05;;;;;;;10.52;7.72;;;;;;;;;;5055134;28;20037;-75
2023/04/22 00:25:31;;;;;;;10.98;7.97;;;;;;;;;;5030120;28;20053;-75
2023/04/22 00:27:57;;;;;;;8.85;7.50;;;;;;;;;;5035137;28;20469;-74
2023/04/22 00:30:23;;;;;;;10.13;8.40;;;;;;;;;;5016798;28;20079;-74
2023/04/22 00:32:49;;;;;;;11.18;7.85;;;;;;;;;;5044676;28;20485;-75
2023/04/22 00:35:15;;;;;;;9.48;7.55;;;;;;;;;;5054391;28;20120;-74
2023/04/22 00:37:41;;;;;;;10.93;7.60;;;;;;;;;;5053409;28;20048;-75
2023/04/22 00:40:07;;;;;;;10.07;8.02;;;;;;;;;;5053041;28;20489;-75
2023/04/22 00:42:33;;;;;;;9.23;7.85;;;;;;;;;;5054333;28;20037;-75
2023/04/22 00:45:00;;;;;;;10.63;8.40;;;;;;;;;;5054291;28;20041;-75
2023/04/22 00:47:26;;;;;;;13.80;8.68;;;;;;;;;;5054503;28;20053;-75
2023/04/22 00:49:53;;;;;;;11.23;8.38;;;;;;;;;;5054215;28;20041;-75
2023/04/22 00:52:19;;;;;;;9.60;7.88;;;;;;;;;;5053296;28;20056;-74
2023/04/22 00:54:45;;;;;;;11.20;8.80;;;;;;;;;;5053916;28;20063;-76
2023/04/22 00:57:13;;;;;;;9.50;8.38;;;;;;;;;;5054240;28;20053;-74
2023/04/22 00:59:39;;;;;;;13.32;9.10;;;;;;;;;;5052642;28;20110;-74
2023/04/22 01:02:05;;;;;;;9.48;8.35;;;;;;;;;;5052592;28;20048;-75
2023/04/22 01:04:31;;;;;;;10.27;9.10;;;;;;;;;;5051932;28;20080;-75
2023/04/22 01:06:57;;;;;;;10.93;9.20;;;;;;;;;;5052589;28;20524;-75
2023/04/22 01:09:24;;;;;;;10.60;9.32;;;;;;;;;;5052885;28;20045;-75
2023/04/22 01:11:51;;;;;;;13.23;10.82;;;;;;;;;;5052585;28;20047;-75
2023/04/22 01:14:17;;;;;;;18.65;11.27;;;;;;;;;;5053119;28;20048;-75
2023/04/22 01:16:43;;;;;;;15.18;10.90;;;;;;;;;;5052683;28;20045;-75
2023/04/22 01:19:10;;;;;;;13.63;11.25;;;;;;;;;;5053429;28;20052;-74
2023/04/22 01:21:38;;;;;;;12.52;10.15;;;;;;;;;;5053614;28;20045;-74
2023/04/22 01:24:05;;;;;;;13.00;10.52;;;;;;;;;;5053353;28;20077;-74
2023/04/22 01:26:31;;;;;;;12.82;10.05;;;;;;;;;;5042973;28;20041;-74
2023/04/22 01:28:57;;;;;;;14.65;9.98;;;;;;;;;;5053484;28;20075;-74
2023/04/22 01:31:23;;;;;;;11.70;9.75;;;;;;;;;;5053204;28;20486;-73
2023/04/22 01:33:50;;;;;;;11.38;9.57;;;;;;;;;;5018715;28;20053;-73
2023/04/22 01:36:16;;;;;;;12.27;9.68;;;;;;;;;;5053449;28;20390;-73
2023/04/22 01:38:42;;;;;;;12.18;9.13;;;;;;;;;;5053246;28;20044;-73
2023/04/22 01:41:08;;;;;;;12.27;10.10;;;;;;;;;;5051875;28;20037;-73
2023/04/22 01:43:35;;;;;;;12.32;10.10;;;;;;;;;;5053288;28;20494;-73
2023/04/22 01:46:01;;;;;;;11.55;9.40;;;;;;;;;;5053436;28;20140;-73
2023/04/22 01:48:27;;;;;;;11.30;9.80;;;;;;;;;;5052770;28;20073;-74
2023/04/22 01:50:53;;;;;;;11.60;10.20;;;;;;;;;;5052916;28;20044;-74
2023/04/22 01:53:19;;;;;;;13.02;10.40;;;;;;;;;;5052521;28;20053;-74
2023/04/22 01:55:46;;;;;;;12.27;9.60;;;;;;;;;;5053176;28;20045;-74
2023/04/22 01:58:12;;;;;;;14.38;9.68;;;;;;;;;;5035013;28;20053;-73
2023/04/22 02:00:38;;;;;;;14.25;9.63;;;;;;;;;;5051624;28;20025;-74
2023/04/22 02:03:04;;;;;;;14.55;9.82;;;;;;;;;;5035123;28;20483;-74
2023/04/22 02:05:30;;;;;;;11.82;9.80;;;;;;;;;;5052525;28;20084;-73
2023/04/22 02:07:56;;;;;;;10.80;9.63;;;;;;;;;;5052383;28;20497;-74
2023/04/22 02:10:22;;;;;;;11.48;10.02;;;;;;;;;;5052568;28;20049;-73
2023/04/22 02:12:49;;;;;;;11.15;9.10;;;;;;;;;;5052807;28;20509;-74
2023/04/22 02:15:15;;;;;;;11.60;9.50;;;;;;;;;;5034578;28;20044;-73
2023/04/22 02:17:42;;;;;;;10.40;9.30;;;;;;;;;;5034964;28;20056;-74
2023/04/22 02:20:11;;;;;;;12.27;9.45;;;;;;;;;;5051528;28;20544;-74
2023/04/22 02:22:38;;;;;;;11.82;9.88;;;;;;;;;;5052900;28;20047;-74
2023/04/22 02:25:04;;;;;;;11.80;9.52;;;;;;;;;;5052150;28;20102;-73
2023/04/22 02:27:30;;;;;;;13.45;10.10;;;;;;;;;;5018302;28;20116;-73
2023/04/22 02:29:56;;;;;;;12.88;10.23;;;;;;;;;;5052155;28;20123;-74
2023/04/22 02:32:22;;;;;;;12.88;10.25;;;;;;;;;;5052297;28;20142;-75
2023/04/22 02:34:48;;;;;;;14.00;11.15;;;;;;;;;;5052281;28;20560;-73
2023/04/22 02:37:15;;;;;;;14.25;10.35;;;;;;;;;;5050654;28;20045;-73
2023/04/22 02:39:41;;;;;;;17.88;14.27;;;;;;;;;;5052080;28;20041;-73
2023/04/22 02:42:07;;;;;;;22.67;20.30;;;;;;;;;;5052152;28;20064;-73
2023/04/22 02:44:33;;;;;;;20.60;18.42;;;;;;;;;;5031969;28;20045;-74
2023/04/22 02:46:59;;;;;;;18.10;15.88;;;;;;;;;;5050946;28;20220;-74
2023/04/22 02:49:25;;;;;;;17.13;15.35;;;;;;;;;;5033765;28;20037;-74
2023/04/22 02:51:52;;;;;;;15.00;13.13;;;;;;;;;;5052299;28;20494;-74
2023/04/22 02:54:18;;;;;;;16.85;13.07;;;;;;;;;;5051529;28;20551;-74
2023/04/22 02:56:44;;;;;;;15.68;13.02;;;;;;;;;;5052192;28;20432;-73
2023/04/22 02:59:10;;;;;;;14.30;12.45;;;;;;;;;;5032162;28;20041;-74
2023/04/22 03:01:36;;;;;;;13.82;12.23;;;;;;;;;;5052299;28;20041;-74
2023/04/22 03:04:02;;;;;;;14.23;12.38;;;;;;;;;;5034582;28;20053;-74
2023/04/22 03:06:29;;;;;;;13.60;11.73;;;;;;;;;;5053048;28;20053;-73
2023/04/22 03:08:56;;;;;;;14.20;12.00;;;;;;;;;;5035153;28;20040;-73
2023/04/22 03:11:22;;;;;;;15.70;12.02;;;;;;;;;;5053616;28;20098;-73
2023/04/22 03:13:48;;;;;;;13.50;11.35;;;;;;;;;;5038373;28;20049;-74
2023/04/22 03:16:16;;;;;;;15.32;11.85;;;;;;;;;;5038401;28;20052;-74
2023/04/22 03:18:42;;;;;;;15.20;11.65;;;;;;;;;;5035070;28;20581;-74
2023/04/22 03:21:08;;;;;;;13.32;11.63;;;;;;;;;;5053524;28;20131;-74
2023/04/22 03:23:34;;;;;;;13.55;11.57;;;;;;;;;;5038074;28;20048;-74
2023/04/22 03:26:00;;;;;;;14.05;11.65;;;;;;;;;;5055526;28;20458;-75
2023/04/22 03:28:26;;;;;;;14.30;11.13;;;;;;;;;;5038627;28;20095;-74
2023/04/22 03:30:52;;;;;;;16.70;11.95;;;;;;;;;;5055867;28;20045;-75
2023/04/22 03:33:18;;;;;;;13.32;11.70;;;;;;;;;;5056023;28;20053;-75
2023/04/22 03:35:47;;;;;;;16.92;10.95;;;;;;;;;;5055610;28;20056;-74
2023/04/22 03:38:13;;;;;;;15.50;12.27;;;;;;;;;;5055992;28;20045;-75
2023/04/22 03:40:39;;;;;;;15.15;11.77;;;;;;;;;;5051039;28;20045;-74
2023/04/22 03:43:05;;;;;;;14.25;11.18;;;;;;;;;;5053524;28;20094;-74
2023/04/22 03:45:31;;;;;;;13.50;11.52;;;;;;;;;;5055338;28;20049;-74
2023/04/22 03:47:57;;;;;;;15.43;12.25;;;;;;;;;;5037879;28;20041;-74
2023/04/22 03:50:24;;;;;;;15.55;12.43;;;;;;;;;;5037316;28;20105;-74
2023/04/22 03:52:51;;;;;;;15.02;13.43;;;;;;;;;;5037895;28;20045;-74
2023/04/22 03:55:17;;;;;;;16.92;12.65;;;;;;;;;;5036500;28;20091;-74
2023/04/22 03:57:43;;;;;;;14.82;13.25;;;;;;;;;;5037211;28;20052;-74
2023/04/22 04:00:09;;;;;;;17.25;13.70;;;;;;;;;;5055063;28;20089;-75
2023/04/22 04:02:35;;;;;;;16.20;12.70;;;;;;;;;;5037224;28;20187;-75
2023/04/22 04:05:01;;;;;;;16.58;13.52;;;;;;;;;;5055052;28;20045;-75
2023/04/22 04:07:27;;;;;;;14.75;11.93;;;;;;;;;;5054433;28;20531;-74
2023/04/22 04:09:53;;;;;;;16.20;13.13;;;;;;;;;;5055233;28;20133;-75
2023/04/22 04:12:19;;;;;;;16.40;12.43;;;;;;;;;;5054906;28;20124;-75
2023/04/22 04:14:45;;;;;;;14.55;12.65;;;;;;;;;;5036747;28;20045;-75
2023/04/22 04:17:12;;;;;;;15.32;13.02;;;;;;;;;;5055119;28;20048;-75
2023/04/22 04:19:39;;;;;;;16.50;13.48;;;;;;;;;;5054335;28;20083;-74
2023/04/22 04:22:05;;;;;;;16.15;13.45;;;;;;;;;;5055174;28;20037;-75
2023/04/22 04:24:32;;;;;;;22.40;20.00;;;;;;;;;;5053801;28;20415;-74
2023/04/22 04:26:58;;;;;;;27.70;22.98;;;;;;;;;;5054667;28;20112;-75
2023/04/22 04:29:24;;;;;;;31.25;27.10;;;;;;;;;;5036132;28;20049;-75
2023/04/22 04:31:50;;;;;;;30.45;27.15;;;;;;;;;;5054169;28;20486;-74
2023/04/22 04:34:16;;;;;;;32.08;26.55;;;;;;;;;;5054207;28;20057;-74
2023/04/22 04:36:42;;;;;;;28.83;25.73;;;;;;;;;;5054632;28;20390;-74
2023/04/22 04:39:08;;;;;;;27.25;23.80;;;;;;;;;;5036603;28;20056;-74
2023/04/22 04:41:34;;;;;;;24.10;21.48;;;;;;;;;;5037285;28;20040;-74
2023/04/22 04:44:00;;;;;;;22.02;18.55;;;;;;;;;;5036654;28;20409;-75
2023/04/22 04:46:28;;;;;;;18.40;15.70;;;;;;;;;;5054265;28;20041;-75
2023/04/22 04:48:54;;;;;;;18.30;15.07;;;;;;;;;;5054173;28;20072;-75
2023/04/22 04:51:20;;;;;;;16.20;14.38;;;;;;;;;;5053728;28;20056;-75
2023/04/22 04:53:46;;;;;;;16.55;14.40;;;;;;;;;;5053874;28;20041;-75
2023/04/22 04:56:12;;;;;;;16.35;14.40;;;;;;;;;;5053152;28;20048;-74
2023/04/22 04:58:38;;;;;;;17.48;13.40;;;;;;;;;;5053776;28;20052;-75
2023/04/22 05:01:05;;;;;;;16.88;13.10;;;;;;;;;;5019392;28;20045;-74
2023/04/22 05:03:31;;;;;;;16.55;13.63;;;;;;;;;;5036161;28;20083;-74
2023/04/22 05:05:57;;;;;;;15.77;13.63;;;;;;;;;;5053398;28;20056;-75
2023/04/22 05:08:23;;;;;;;17.65;14.88;;;;;;;;;;5054075;28;20079;-73
2023/04/22 05:10:49;;;;;;;20.65;18.42;;;;;;;;;;5053640;28;20094;-73
2023/04/22 05:13:15;;;;;;;22.63;20.23;;;;;;;;;;5035819;28;20045;-73
2023/04/22 05:15:41;;;;;;;24.05;21.55;;;;;;;;;;5035961;28;20401;-74
2023/04/22 05:18:07;;;;;;;25.33;22.08;;;;;;;;;;5035718;28;20128;-74
2023/04/22 05:20:33;;;;;;;23.40;18.25;;;;;;;;;;5051819;28;20041;-74
2023/04/22 05:23:00;;;;;;;19.42;15.73;;;;;;;;;;5053755;28;20044;-74
2023/04/22 05:25:26;;;;;;;15.43;12.80;;;;;;;;;;5053227;28;20084;-74
2023/04/22 05:27:52;;;;;;;16.40;13.40;;;;;;;;;;5054051;28;20045;-74
2023/04/22 05:30:18;;;;;;;17.85;13.30;;;;;;;;;;5053506;28;20313;-74
2023/04/22 05:32:44;;;;;;;16.05;12.75;;;;;;;;;;5018982;28;20049;-74
2023/04/22 05:35:10;;;;;;;15.73;12.18;;;;;;;;;;5034559;28;20080;-74
2023/04/22 05:37:36;;;;;;;14.75;12.70;;;;;;;;;;5052559;28;20051;-74
2023/04/22 05:40:02;;;;;;;16.13;12.65;;;;;;;;;;5035772;28;20080;-74
2023/04/22 05:42:28;;;;;;;16.50;13.77;;;;;;;;;;5053567;28;20120;-74
2023/04/22 05:44:54;;;;;;;17.15;14.57;;;;;;;;;;5053273;28;20184;-75
2023/04/22 05:47:20;;;;;;;18.58;16.58;;;;;;;;;;5053734;28;20037;-74
2023/04/22 05:49:46;;;;;;;19.33;17.15;;;;;;;;;;5052016;28;20060;-74
2023/04/22 05:52:12;;;;;;;18.00;14.77;;;;;;;;;;5050608;28;20393;-75
2023/04/22 05:54:38;;;;;;;19.98;15.75;;;;;;;;;;5052433;28;20053;-75
2023/04/22 05:57:04;;;;;;;18.02;15.60;;;;;;;;;;5035026;28;20041;-73
2023/04/22 05:59:30;;;;;;;17.67;15.68;;;;;;;;;;5034715;28;20515;-74
2023/04/22 06:01:56;;;;;;;18.48;13.27;;;;;;;;;;5051862;28;20086;-74
2023/04/22 06:04:22;;;;;;;18.80;14.07;;;;;;;;;;5052326;28;20481;-73
2023/04/22 06:06:49;;;;;;;15.55;13.23;;;;;;;;;;5052857;28;20040;-74
2023/04/22 06:09:15;;;;;;;16.92;13.27;;;;;;;;;;5053042;28;20519;-75
2023/04/22 06:11:41;;;;;;;14.40;12.60;;;;;;;;;;5053065;28;20077;-74
2023/04/22 06:14:07;;;;;;;15.70;12.55;;;;;;;;;;5034731;28;20049;-74
2023/04/22 06:16:33;;;;;;;14.85;11.98;;;;;;;;;;5051835;28;20285;-74
2023/04/22 06:19:00;;;;;;;16.55;12.23;;;;;;;;;;5034719;28;20049;-75
2023/04/22 06:21:26;;;;;;;15.30;12.65;;;;;;;;;;5047975;28;20071;-74
2023/04/22 06:23:52;;;;;;;16.38;11.75;;;;;;;;;;5047030;28;20048;-74
2023/04/22 06:26:18;;;;;;;16.15;12.20;;;;;;;;;;5035310;28;20049;-74
2023/04/22 06:28:44;;;;;;;14.63;12.05;;;;;;;;;;5018564;28;20075;-74
2023/04/22 06:31:10;;;;;;;14.35;12.48;;;;;;;;;;5052260;28;20041;-74
2023/04/22 06:33:36;;;;;;;15.63;11.95;;;;;;;;;;5034097;28;20095;-74
2023/04/22 06:36:03;;;;;;;17.42;12.27;;;;;;;;;;5052588;28;20106;-74
2023/04/22 06:38:29;;;;;;;14.23;12.73;;;;;;;;;;5052143;28;20075;-74
2023/04/22 06:40:55;;;;;;;17.15;11.85;;;;;;;;;;5052363;28;20450;-74
2023/04/22 06:43:21;;;;;;;15.40;12.00;;;;;;;;;;5052644;28;20125;-74
2023/04/22 06:45:50;;;;;;;16.70;12.43;;;;;;;;;;5052063;28;20098;-74
2023/04/22 06:48:16;;;;;;;16.55;12.27;;;;;;;;;;5055863;28;20045;-75
2023/04/22 06:50:42;;;;;;;14.35;11.82;;;;;;;;;;5056404;28;20049;-74
2023/04/22 06:53:08;;;;;;;15.50;12.13;;;;;;;;;;5056246;28;20056;-74
2023/04/22 06:55:35;;;;;;;14.35;11.48;;;;;;;;;;5056348;28;20095;-74
2023/04/22 06:58:01;;;;;;;14.98;12.00;;;;;;;;;;5056289;28;20056;-74
2023/04/22 07:00:27;;;;;;;17.60;11.13;;;;;;;;;;5055849;28;20049;-74
2023/04/22 07:02:54;;;;;;;12.50;11.02;;;;;;;;;;5038341;28;20045;-74
2023/04/22 07:05:20;;;;;;;12.75;11.10;;;;;;;;;;5037780;28;20083;-74
2023/04/22 07:07:46;;;;;;;13.73;11.23;;;;;;;;;;5050756;28;20203;-74
2023/04/22 07:10:13;;;;;;;12.80;11.00;;;;;;;;;;5034982;28;20041;-76
2023/04/22 07:12:39;;;;;;;17.35;11.18;;;;;;;;;;5056464;28;20116;-74
2023/04/22 07:15:06;;;;;;;17.40;11.43;;;;;;;;;;5049811;28;20040;-74
2023/04/22 07:17:32;;;;;;;13.35;11.30;;;;;;;;;;5038488;28;20041;-75
2023/04/22 07:19:58;;;;;;;13.35;10.75;;;;;;;;;;5037854;28;20049;-75
2023/04/22 07:22:24;;;;;;;11.73;10.52;;;;;;;;;;5037989;28;20131;-75
2023/04/22 07:24:50;;;;;;;12.27;10.75;;;;;;;;;;5037880;28;20460;-74
2023/04/22 07:27:16;;;;;;;12.30;10.98;;;;;;;;;;5037927;28;20045;-75
2023/04/22 07:29:46;;;;;;;13.23;11.20;;;;;;;;;;5055600;28;20045;-74
2023/04/22 07:32:12;;;;;;;12.27;11.02;;;;;;;;;;5037428;28;20191;-74
2023/04/22 07:34:38;;;;;;;15.70;11.50;;;;;;;;;;5021332;28;20052;-74
2023/04/22 07:37:06;;;;;;;14.27;11.07;;;;;;;;;;5028332;28;20071;-74
2023/04/22 07:39:32;;;;;;;13.23;10.82;;;;;;;;;;5055354;28;20049;-74
2023/04/22 07:41:59;;;;;;;12.93;10.98;;;;;;;;;;5055486;28;20049;-74
2023/04/22 07:44:25;;;;;;;15.05;10.23;;;;;;;;;;5055290;28;20094;-74
2023/04/22 07:46:52;;;;;;;12.02;10.13;;;;;;;;;;5055302;28;20047;-74
2023/04/22 07:49:18;;;;;;;14.05;9.93;;;;;;;;;;5037602;28;20053;-74
2023/04/22 07:51:45;;;;;;;13.70;10.20;;;;;;;;;;5036857;28;20131;-75
2023/04/22 07:54:11;;;;;;;14.60;10.90;;;;;;;;;;5027036;28;20129;-74
2023/04/22 07:56:37;;;;;;;12.43;11.13;;;;;;;;;;5054946;28;20485;-74
2023/04/22 07:59:03;;;;;;;13.98;11.95;;;;;;;;;;5053969;28;20041;-74
2023/04/22 08:01:29;;;;;;;16.10;11.77;;;;;;;;;;5036502;28;20045;-74
2023/04/22 08:03:55;;;;;;;15.00;11.82;;;;;;;;;;5053996;28;20451;-74
2023/04/22 08:06:22;;;;;;;14.95;13.32;;;;;;;;;;5054613;28;20037;-74
2023/04/22 08:08:48;;;;;;;14.68;12.88;;;;;;;;;;5055033;28;20052;-75
2023/04/22 08:11:14;;;;;;;14.65;13.18;;;;;;;;;;5055265;28;20398;-75
2023/04/22 08:13:40;;;;;;;14.68;13.05;;;;;;;;;;5052960;28;20048;-73
2023/04/22 08:16:06;;;;;;;15.07;13.30;;;;;;;;;;5037245;28;20049;-73
2023/04/22 08:18:32;;;;;;;16.35;14.00;;;;;;;;;;5055123;28;20045;-74
2023/04/22 08:20:58;;;;;;;16.63;14.05;;;;;;;;;;5036888;28;20041;-73
2023/04/22 08:23:25;;;;;;;14.05;12.50;;;;;;;;;;5037016;28;20453;-74
2023/04/22 08:25:51;;;;;;;13.27;10.73;;;;;;;;;;5054823;28;20092;-74
2023/04/22 08:28:17;;;;;;;13.13;11.00;;;;;;;;;;5036686;28;20091;-73
2023/04/22 08:30:43;;;;;;;15.23;11.68;;;;;;;;;;5036586;28;20037;-73
2023/04/22 08:33:09;;;;;;;15.20;11.38;;;;;;;;;;5035184;28;20063;-73
2023/04/22 08:35:35;;;;;;;15.40;11.10;;;;;;;;;;5051999;28;20049;-74
2023/04/22 08:38:01;;;;;;;13.15;10.02;;;;;;;;;;5054752;28;20049;-74
2023/04/22 08:40:28;;;;;;;11.70;10.10;;;;;;;;;;5054179;28;20064;-74
2023/04/22 08:42:54;;;;;;;11.40;10.02;;;;;;;;;;5054538;28;20045;-74
2023/04/22 08:45:21;;;;;;;10.45;9.30;;;;;;;;;;5052744;28;20567;-75
2023/04/22 08:47:48;;;;;;;14.00;9.07;;;;;;;;;;5054643;28;20045;-73
2023/04/22 08:50:14;;;;;;;10.90;8.90;;;;;;;;;;5052822;28;20513;-74
2023/04/22 08:52:43;;;;;;;11.63;8.98;;;;;;;;;;5053121;28;20041;-74
2023/04/22 08:55:09;;;;;;;10.07;8.52;;;;;;;;;;5035588;28;20052;-74
2023/04/22 08:57:37;;;;;;;9.90;8.57;;;;;;;;;;5054331;28;20044;-74
2023/04/22 09:00:05;;;;;;;12.02;8.32;;;;;;;;;;5053939;28;20044;-74
2023/04/22 09:02:32;;;;;;;11.48;9.43;;;;;;;;;;5054088;28;20061;-74
2023/04/22 09:05:01;;;;;;;12.00;8.27;;;;;;;;;;5053898;28;20055;-74
2023/04/22 09:07:29;;;;;;;9.38;8.38;;;;;;;;;;5054070;28;20045;-75
2023/04/22 09:09:55;;;;;;;10.50;8.95;;;;;;;;;;5051441;28;20051;-74
2023/04/22 09:12:22;;;;;;;13.75;8.32;;;;;;;;;;5054074;28;20045;-74
2023/04/22 09:14:48;;;;;;;11.48;8.35;;;;;;;;;;5052763;28;20148;-75
2023/04/22 09:17:18;;;;;;;10.27;8.10;;;;;;;;;;5054776;28;20045;-74
2023/04/22 09:19:44;;;;;;;12.13;8.20;;;;;;;;;;5056131;28;20048;-74
2023/04/22 09:22:13;;;;;;;10.90;8.13;;;;;;;;;;5052966;28;20037;-74
2023/04/22 09:24:57;;;;;;;9.30;7.57;;;;;;;;;;5054056;28;20099;-74
2023/04/22 09:27:23;;;;;;;10.20;8.52;;;;;;;;;;5054175;28;20041;-74
2023/04/22 09:29:51;;;;;;;13.50;7.65;;;;;;;;;;5053240;28;20045;-75
2023/04/22 09:32:17;;;;;;;10.88;7.63;;;;;;;;;;5052189;28;20524;-74
2023/04/22 09:34:49;;;;;;;7.85;6.82;;;;;;;;;;5053062;28;20062;-75
2023/04/22 09:37:18;;;;;;;7.07;6.38;;;;;;;;;;5054375;28;20041;-76
2023/04/22 09:39:44;;;;;;;8.00;6.30;;;;;;;;;;5053263;28;20057;-75
2023/04/22 09:42:10;;;;;;;7.53;6.40;;;;;;;;;;5053365;28;20128;-75
2023/04/22 09:44:36;;;;;;;7.80;6.68;;;;;;;;;;5051706;28;20076;-75
2023/04/22 09:47:02;;;;;;;9.25;6.60;;;;;;;;;;5053250;28;20440;-75
2023/04/22 09:49:28;;;;;;;6.95;6.15;;;;;;;;;;5053107;28;20048;-75
2023/04/22 09:51:56;;;;;;;7.30;6.32;;;;;;;;;;5052527;28;20115;-75
2023/04/22 09:54:23;;;;;;;8.50;6.00;;;;;;;;;;5049680;28;20055;-75
2023/04/22 09:56:50;;;;;;;6.88;5.80;;;;;;;;;;5034767;28;20048;-75
2023/04/22 09:59:21;;;;;;;7.10;6.20;;;;;;;;;;5051152;28;20130;-75
2023/04/22 10:01:47;;;;;;;7.47;5.90;;;;;;;;;;5051590;28;20099;-75
2023/04/22 10:04:14;;;;;;;7.60;5.97;;;;;;;;;;5051616;28;20045;-75
2023/04/22 10:06:41;;;;;;;7.57;5.63;;;;;;;;;;5049960;28;20052;-75
2023/04/22 10:09:08;;;;;;;8.65;5.63;;;;;;;;;;5053014;28;20049;-75
2023/04/22 10:11:34;;;;;;;7.22;5.78;;;;;;;;;;5052985;28;20048;-75
2023/04/22 10:14:01;;;;;;;8.77;5.40;;;;;;;;;;5053032;28;20049;-75
2023/04/22 10:16:28;;;;;;;8.05;6.15;;;;;;;;;;5052561;28;20067;-75
2023/04/22 10:18:55;;;;;;;9.30;6.40;;;;;;;;;;5052462;28;20056;-75
2023/04/22 10:21:22;;;;;;;7.18;6.47;;;;;;;;;;5050492;28;20119;-75
2023/04/22 10:23:48;;;;;;;9.32;7.25;;;;;;;;;;5052468;28;20099;-75
2023/04/22 10:26:34;;;;;;;8.48;6.93;;;;;;;;;;5051334;28;20064;-75
2023/04/22 10:29:00;;;;;;;10.90;7.20;;;;;;;;;;5052441;28;20211;-75
2023/04/22 10:31:26;;;;;;;8.85;6.25;;;;;;;;;;5051964;28;20088;-75
2023/04/22 10:34:08;;;;;;;7.90;6.18;;;;;;;;;;5052215;28;20163;-75
2023/04/22 10:36:34;;;;;;;8.43;6.30;;;;;;;;;;5052909;28;20041;-75
2023/04/22 10:39:00;;;;;;;8.38;5.88;;;;;;;;;;5035012;28;20049;-76
2023/04/22 10:41:30;;;;;;;7.50;5.70;;;;;;;;;;5034587;28;20504;-76
2023/04/22 10:43:57;;;;;;;7.47;5.63;;;;;;;;;;5034767;28;20103;-76
2023/04/22 10:46:46;;;;;;;8.82;6.18;;;;;;;;;;5052220;28;20088;-74
2023/04/22 10:49:16;;;;;;;6.72;5.90;;;;;;;;;;5042029;28;20072;-76
2023/04/22 10:51:42;;;;;;;7.70;5.32;;;;;;;;;;5052122;28;20078;-76
2023/04/22 10:54:27;;;;;;;5.90;5.30;;;;;;;;;;5034558;28;20053;-76
2023/04/22 10:57:00;;;;;;;8.17;5.50;;;;;;;;;;5034462;28;20049;-76
2023/04/22 10:59:27;;;;;;;6.65;5.55;;;;;;;;;;5052400;28;20049;-76
2023/04/22 11:01:53;;;;;;;6.63;5.30;;;;;;;;;;5052236;28;20056;-76
2023/04/22 11:04:22;;;;;;;6.38;5.15;;;;;;;;;;5018075;28;20045;-75
2023/04/22 11:07:07;;;;;;;8.48;5.07;;;;;;;;;;5052194;28;20115;-76
2023/04/22 11:09:33;;;;;;;8.40;5.30;;;;;;;;;;5051975;28;20045;-76
2023/04/22 11:12:31;;;;;;;5.68;5.07;;;;;;;;;;5052261;28;20044;-76
2023/04/22 11:14:57;;;;;;;6.53;5.70;;;;;;;;;;5051729;28;20045;-76
2023/04/22 11:17:23;;;;;;;5.60;4.70;;;;;;;;;;5044086;28;20110;-76
2023/04/22 11:19:54;;;;;;;7.35;5.10;;;;;;;;;;5051950;28;20132;-76
2023/04/22 11:22:21;;;;;;;6.05;4.97;;;;;;;;;;5052098;28;20059;-76
2023/04/22 11:25:13;;;;;;;8.35;5.22;;;;;;;;;;5051774;28;20549;-76
2023/04/22 11:27:42;;;;;;;7.30;5.00;;;;;;;;;;5048655;28;20135;-76
2023/04/22 11:30:13;;;;;;;6.80;5.13;;;;;;;;;;5034005;28;20115;-76
2023/04/22 11:32:40;;;;;;;8.57;4.50;;;;;;;;;;5052643;28;20068;-76
2023/04/22 11:35:07;;;;;;;6.15;4.70;;;;;;;;;;5055800;28;20084;-76
2023/04/22 11:37:40;;;;;;;7.72;5.03;;;;;;;;;;5054984;28;20045;-76
2023/04/22 11:40:09;;;;;;;9.40;4.97;;;;;;;;;;5054851;28;20123;-76
2023/04/22 11:42:35;;;;;;;7.43;5.53;;;;;;;;;;5037801;28;20048;-76
2023/04/22 11:45:01;;;;;;;8.07;5.38;;;;;;;;;;5052863;28;20053;-76
2023/04/22 11:47:30;;;;;;;9.68;5.38;;;;;;;;;;5019668;28;20595;-76
2023/04/22 11:49:58;;;;;;;7.78;5.18;;;;;;;;;;5055249;28;20470;-76
2023/04/22 11:52:25;;;;;;;6.93;4.85;;;;;;;;;;5029228;28;20115;-76
2023/04/22 11:54:51;;;;;;;7.85;5.18;;;;;;;;;;5039272;28;20099;-76
2023/04/22 11:57:20;;;;;;;8.82;5.45;;;;;;;;;;5017975;28;20034;-76
2023/04/22 11:59:57;;;;;;;5.88;4.80;;;;;;;;;;5017340;28;20061;-76
2023/04/22 12:02:23;;;;;;;5.57;4.53;;;;;;;;;;5035502;28;20394;-76
2023/04/22 12:04:49;;;;;;;5.65;4.35;;;;;;;;;;5035238;28;20124;-76
2023/04/22 12:07:15;;;;;;;7.25;4.55;;;;;;;;;;5017397;28;20541;-76
2023/04/22 12:09:41;;;;;;;6.95;4.45;;;;;;;;;;5016223;28;20038;-76
2023/04/22 12:12:07;;;;;;;6.90;3.95;;;;;;;;;;5033012;28;20425;-76
2023/04/22 12:14:34;;;;;;;7.28;4.30;;;;;;;;;;5034836;28;20042;-76
2023/04/22 12:17:10;;;;;;;5.88;4.00;;;;;;;;;;5035403;28;20060;-75
2023/04/22 12:19:37;;;;;;;5.47;4.18;;;;;;;;;;5034302;28;20052;-74
2023/04/22 12:22:03;;;;;;;6.45;4.22;;;;;;;;;;5053153;28;20060;-76
2023/04/22 12:24:29;;;;;;;6.47;3.85;;;;;;;;;;5056810;28;20440;-75
2023/04/22 12:26:55;;;;;;;5.13;3.60;;;;;;;;;;5055932;28;20045;-73
2023/04/22 12:29:32;;;;;;;6.22;3.40;;;;;;;;;;5055088;28;20060;-74
2023/04/22 12:31:58;;;;;;;5.50;3.53;;;;;;;;;;5040069;28;20063;-75
2023/04/22 12:34:24;;;;;;;5.78;3.75;;;;;;;;;;5043293;28;20049;-74
2023/04/22 12:36:50;;;;;;;5.85;3.83;;;;;;;;;;5054167;28;20121;-75
2023/04/22 12:39:17;;;;;;;6.25;3.80;;;;;;;;;;5054535;28;20041;-75
2023/04/22 12:41:43;;;;;;;5.85;3.92;;;;;;;;;;5054452;28;20107;-75
2023/04/22 12:44:09;;;;;;;6.05;4.13;;;;;;;;;;5053575;28;20044;-76
2023/04/22 12:46:36;;;;;;;6.25;4.00;;;;;;;;;;5070025;28;20131;-74
2023/04/22 12:49:02;;;;;;;7.40;4.00;;;;;;;;;;5050635;28;20113;-75
2023/04/22 12:51:28;;;;;;;7.82;4.60;;;;;;;;;;5052771;28;20377;-75
2023/04/22 12:53:54;;;;;;;8.05;5.07;;;;;;;;;;5053843;28;20048;-74
2023/04/22 12:56:19;;;;;;;8.30;5.50;;;;;;;;;;5046697;28;20052;-75
2023/04/22 12:58:47;;;;;;;7.95;5.00;;;;;;;;;;5048666;28;20044;-74
2023/04/22 13:01:13;;;;;;;8.20;5.40;;;;;;;;;;5042571;28;20056;-76
2023/04/22 13:03:39;;;;;;;10.63;5.93;;;;;;;;;;5053938;28;20080;-77
2023/04/22 13:06:05;;;;;;;8.82;5.85;;;;;;;;;;5054221;28;20080;-75
2023/04/22 13:08:31;;;;;;;7.93;5.70;;;;;;;;;;5054258;28;20098;-75
2023/04/22 13:10:58;;;;;;;6.45;5.38;;;;;;;;;;5053685;28;20045;-75
2023/04/22 13:13:24;;;;;;;8.13;5.47;;;;;;;;;;5028205;28;20091;-75
2023/04/22 13:15:52;;;;;;;7.65;5.25;;;;;;;;;;5052526;28;20099;-75
2023/04/22 13:18:19;;;;;;;7.95;5.60;;;;;;;;;;5052435;28;20052;-75
2023/04/22 13:20:46;;;;;;;6.75;5.03;;;;;;;;;;5046503;28;20055;-75
2023/04/22 13:23:13;;;;;;;7.80;5.65;;;;;;;;;;5049888;28;20045;-75
2023/04/22 13:25:39;;;;;;;7.70;5.95;;;;;;;;;;5052492;28;20053;-75
2023/04/22 13:28:05;;;;;;;8.55;5.90;;;;;;;;;;5053276;28;20048;-75
2023/04/22 13:30:32;;;;;;;6.85;5.10;;;;;;;;;;5028346;28;20051;-75
2023/04/22 13:32:58;;;;;;;7.20;5.82;;;;;;;;;;5053242;28;20052;-76
2023/04/22 13:35:25;;;;;;;7.10;5.88;;;;;;;;;;5053583;28;20056;-77
2023/04/22 13:37:51;;;;;;;7.70;6.32;;;;;;;;;;5053216;28;20045;-75
2023/04/22 13:40:17;;;;;;;9.52;5.93;;;;;;;;;;5051568;28;20468;-76
2023/04/22 13:42:43;;;;;;;8.05;6.00;;;;;;;;;;5053134;28;20045;-74
2023/04/22 13:45:09;;;;;;;7.07;5.65;;;;;;;;;;5053197;28;20465;-75
2023/04/22 13:47:35;;;;;;;6.72;5.78;;;;;;;;;;5052942;28;20081;-76
2023/04/22 13:50:02;;;;;;;8.40;6.40;;;;;;;;;;5053267;28;20041;-76
2023/04/22 13:52:28;;;;;;;8.38;6.07;;;;;;;;;;5027904;28;20071;-76
2023/04/22 13:54:54;;;;;;;8.15;6.78;;;;;;;;;;5052599;28;20052;-76
2023/04/22 13:57:20;;;;;;;12.02;6.43;;;;;;;;;;5053018;28;20052;-76
2023/04/22 13:59:47;;;;;;;8.45;6.97;;;;;;;;;;5046265;28;20211;-76
2023/04/22 14:02:13;;;;;;;8.40;6.65;;;;;;;;;;5050446;28;20037;-76
2023/04/22 14:04:39;;;;;;;10.70;7.25;;;;;;;;;;5052740;28;20048;-76
2023/04/22 14:07:05;;;;;;;8.13;6.70;;;;;;;;;;5053102;28;20486;-76
2023/04/22 14:09:31;;;;;;;9.35;6.72;;;;;;;;;;5044373;28;20059;-76
2023/04/22 14:11:57;;;;;;;8.25;6.95;;;;;;;;;;5051040;28;20041;-76
2023/04/22 14:14:23;;;;;;;8.27;6.63;;;;;;;;;;5052885;28;20048;-75
2023/04/22 14:16:49;;;;;;;8.07;6.50;;;;;;;;;;5046874;28;20052;-76
2023/04/22 14:19:15;;;;;;;8.95;6.38;;;;;;;;;;5052882;28;20041;-76
2023/04/22 14:21:42;;;;;;;10.63;6.70;;;;;;;;;;5045541;28;20086;-76
2023/04/22 14:24:08;;;;;;;9.90;6.65;;;;;;;;;;5050647;28;20140;-76
2023/04/22 14:26:34;;;;;;;8.23;6.25;;;;;;;;;;5048902;28;20128;-75